Time;durP1;ratioP1;P1;durP2;ratioP2;P2;SDS_P1;SDS_P2;PMS_P1;PMS_P2;Temp;Humidity;BMP_temperature;BMP_pressure;BME280_temperature;BME280_humidity;BME280_pressure;Samples;Min_cycle;Max_cycle;Signal;HPM_P1;HPM_P2
2023/08/05 00:01:11;;;;;;;2.40;2.20;;;;;;;14.97;100.00;97786.84;18440229;32;20101;-57
2023/08/05 00:11:14;;;;;;;3.95;2.40;;;;;;;14.95;100.00;97797.22;18425576;32;20135;-58
2023/08/05 00:21:17;;;;;;;4.10;2.42;;;;;;;14.89;100.00;97812.81;18438613;32;20122;-57
2023/08/05 00:31:20;;;;;;;3.03;2.72;;;;;;;14.89;100.00;97812.81;18424495;32;20350;-58
2023/08/05 00:41:22;;;;;;;8.30;2.55;;;;;;;14.84;100.00;97821.87;18437735;32;20084;-57
2023/08/05 00:51:26;;;;;;;2.83;2.53;;;;;;;14.78;100.00;97809.44;18436694;32;20053;-57
2023/08/05 01:01:28;;;;;;;2.77;2.40;;;;;;;14.67;100.00;97813.41;18436520;32;20103;-57
2023/08/05 01:11:32;;;;;;;2.60;2.28;;;;;;;14.67;100.00;97816.13;18435890;32;20076;-57
2023/08/05 01:21:53;;;;;;;2.90;2.55;;;;;;;14.70;100.00;97797.31;18421387;32;20095;-57
2023/08/05 01:31:56;;;;;;;2.70;2.45;;;;;;;14.74;100.00;97792.91;18433846;32;20076;-58
2023/08/05 01:41:58;;;;;;;4.47;2.50;;;;;;;14.71;100.00;97782.56;18413364;32;20097;-58
2023/08/05 01:52:01;;;;;;;3.33;2.40;;;;;;;14.65;100.00;97780.22;18433299;32;20098;-57
2023/08/05 02:02:03;;;;;;;3.00;2.25;;;;;;;14.64;100.00;97778.62;18406147;32;20084;-58
2023/08/05 02:12:06;;;;;;;3.60;2.45;;;;;;;14.56;100.00;97782.78;18418706;32;20045;-57
2023/08/05 02:22:08;;;;;;;3.22;2.72;;;;;;;14.51;100.00;97780.12;18432254;32;20109;-57
2023/08/05 02:32:11;;;;;;;2.55;2.12;;;;;;;14.41;100.00;97776.41;18424820;32;20092;-57
2023/08/05 02:42:13;;;;;;;2.92;2.20;;;;;;;14.22;100.00;97762.00;18431014;32;20073;-57
2023/08/05 02:52:16;;;;;;;2.87;1.80;;;;;;;13.92;100.00;97749.59;18365954;32;20097;-57
2023/08/05 03:02:18;;;;;;;2.97;2.00;;;;;;;13.80;100.00;97739.94;18367027;32;20066;-57
2023/08/05 03:12:20;;;;;;;4.15;2.58;;;;;;;13.63;100.00;97745.03;18366952;32;20400;-57
2023/08/05 03:22:23;;;;;;;2.90;1.92;;;;;;;13.48;100.00;97744.06;18365965;32;20061;-59
2023/08/05 03:32:25;;;;;;;2.65;2.25;;;;;;;13.35;100.00;97745.56;18364547;32;20454;-60
2023/08/05 03:42:27;;;;;;;2.70;2.25;;;;;;;13.27;100.00;97757.00;18351616;32;20067;-60
2023/08/05 03:52:29;;;;;;;2.12;1.70;;;;;;;13.23;100.00;97754.03;18368849;32;20075;-60
2023/08/05 04:02:32;;;;;;;3.08;2.20;;;;;;;13.33;100.00;97774.06;18374955;32;20438;-60
2023/08/05 04:12:35;;;;;;;5.40;1.90;;;;;;;13.42;100.00;97772.38;18375344;32;20077;-60
2023/08/05 04:22:38;;;;;;;2.50;1.87;;;;;;;13.42;100.00;97750.66;18371076;32;20352;-60
2023/08/05 04:32:40;;;;;;;2.25;2.05;;;;;;;13.32;100.00;97764.28;18367504;32;20054;-60
2023/08/05 04:42:45;;;;;;;2.40;1.90;;;;;;;13.25;100.00;97782.81;18372567;32;20053;-60
2023/08/05 04:52:48;;;;;;;2.78;2.17;;;;;;;13.18;100.00;97781.25;18429023;32;20423;-60
2023/08/05 05:02:50;;;;;;;2.45;2.10;;;;;;;13.10;100.00;97797.31;18436582;32;20094;-60
2023/08/05 05:12:53;;;;;;;2.37;1.60;;;;;;;13.12;100.00;97801.38;18436378;32;20057;-60
2023/08/05 05:22:56;;;;;;;1.83;1.62;;;;;;;13.14;100.00;97788.34;18435055;32;20058;-60
2023/08/05 05:32:58;;;;;;;3.03;2.12;;;;;;;13.21;100.00;97798.87;18434519;32;20101;-60
2023/08/05 05:43:01;;;;;;;2.25;2.03;;;;;;;13.32;100.00;97795.00;18434064;32;20061;-60
2023/08/05 05:53:05;;;;;;;2.50;1.95;;;;;;;13.46;100.00;97780.78;18433120;32;20054;-60
2023/08/05 06:03:08;;;;;;;2.10;1.83;;;;;;;13.78;100.00;97788.31;18432785;32;20057;-60
2023/08/05 06:13:11;;;;;;;2.87;2.10;;;;;;;14.15;100.00;97800.41;18411751;32;20057;-60
2023/08/05 06:23:14;;;;;;;2.35;2.05;;;;;;;14.50;100.00;97805.69;18417625;32;20076;-60
2023/08/05 06:33:17;;;;;;;2.33;1.50;;;;;;;14.76;100.00;97803.50;18417798;32;20110;-60
2023/08/05 06:43:20;;;;;;;3.40;2.53;;;;;;;15.30;100.00;97784.16;18431390;32;20058;-60
2023/08/05 06:53:23;;;;;;;2.70;1.73;;;;;;;15.69;100.00;97774.72;18430586;32;20065;-60
2023/08/05 07:03:26;;;;;;;2.23;1.90;;;;;;;15.86;100.00;97780.44;18417063;32;20053;-58
2023/08/05 07:13:30;;;;;;;3.00;1.90;;;;;;;16.19;100.00;97772.16;18430635;32;20057;-57
2023/08/05 07:23:33;;;;;;;2.30;1.75;;;;;;;16.60;100.00;97784.94;18416441;32;20098;-58
2023/08/05 07:33:37;;;;;;;2.80;2.10;;;;;;;16.67;100.00;97791.91;18442105;32;20061;-57
2023/08/05 07:43:41;;;;;;;1.97;1.77;;;;;;;16.83;100.00;97792.34;18441257;32;20070;-57
2023/08/05 07:53:52;;;;;;;2.17;1.55;;;;;;;16.79;100.00;97773.06;18440459;32;20367;-57
2023/08/05 08:03:57;;;;;;;2.62;2.00;;;;;;;17.14;100.00;97781.56;18433717;32;20073;-57
2023/08/05 08:14:00;;;;;;;4.03;2.05;;;;;;;17.33;100.00;97770.44;18439765;32;20069;-58
2023/08/05 08:24:03;;;;;;;2.80;2.17;;;;;;;17.39;100.00;97743.78;18425389;32;20430;-58
2023/08/05 08:34:06;;;;;;;4.23;1.80;;;;;;;18.08;100.00;97723.34;18424394;32;20066;-58
2023/08/05 08:44:10;;;;;;;1.50;1.40;;;;;;;18.82;100.00;97724.41;18423822;32;20386;-58
2023/08/05 08:54:15;;;;;;;1.92;1.65;;;;;;;18.74;100.00;97717.00;18430283;32;20049;-58
2023/08/05 09:04:19;;;;;;;2.60;1.90;;;;;;;19.06;100.00;97706.66;18436222;32;20132;-58
2023/08/05 09:14:22;;;;;;;2.28;1.90;;;;;;;18.78;100.00;97717.94;18436413;32;20501;-58
2023/08/05 09:24:26;;;;;;;2.00;1.80;;;;;;;18.67;100.00;97711.19;18435191;32;20571;-58
2023/08/05 09:34:34;;;;;;;1.58;1.48;;;;;;;18.11;100.00;97715.28;18420781;32;20058;-58
2023/08/05 09:44:37;;;;;;;1.90;1.55;;;;;;;18.03;100.00;97688.72;18434251;32;20350;-58
2023/08/05 09:54:40;;;;;;;1.73;1.45;;;;;;;18.66;100.00;97693.94;18432927;32;20057;-58
2023/08/05 10:04:44;;;;;;;2.47;1.90;;;;;;;19.18;100.00;97673.12;18432877;32;20061;-58
2023/08/05 10:14:48;;;;;;;2.50;1.70;;;;;;;19.52;100.00;97676.87;18432388;32;20099;-58
2023/08/05 10:24:54;;;;;;;3.15;1.62;;;;;;;19.22;100.00;97665.84;18404724;32;20066;-58
2023/08/05 10:35:28;;;;;;;2.75;1.90;;;;;;;19.85;100.00;97654.31;18417577;32;20126;-58
2023/08/05 10:45:33;;;;;;;2.70;1.67;;;;;;;20.37;100.00;97650.44;18410284;32;20041;-58
2023/08/05 10:55:47;;;;;;;1.70;1.48;;;;;;;20.88;100.00;97629.13;18404510;32;20064;-58
2023/08/05 11:05:56;;;;;;;2.40;1.70;;;;;;;21.23;99.26;97626.03;18442313;32;20053;-58
2023/08/05 11:16:03;;;;;;;3.03;1.92;;;;;;;20.69;100.00;97604.91;18443379;32;20084;-58
2023/08/05 11:26:07;;;;;;;2.75;1.33;;;;;;;21.13;100.00;97612.69;18442599;32;20118;-58
2023/08/05 11:36:13;;;;;;;2.17;1.30;;;;;;;21.53;100.00;97592.84;18441939;32;20073;-58
2023/08/05 11:46:27;;;;;;;2.37;1.73;;;;;;;21.85;100.00;97600.50;18440741;32;20068;-58
2023/08/05 11:56:35;;;;;;;1.55;1.40;;;;;;;21.60;98.85;97573.81;18427566;32;20062;-58
2023/08/05 12:06:38;;;;;;;1.65;1.15;;;;;;;21.91;100.00;97575.16;18425721;32;20358;-58
2023/08/05 12:16:42;;;;;;;1.48;1.23;;;;;;;21.36;96.40;97538.03;18438866;32;20065;-58
2023/08/05 12:26:44;;;;;;;;;;;;;;;21.43;100.00;97538.25;18439283;32;20095;-58
2023/08/05 12:36:47;;;;;;;1.35;1.20;;;;;;;21.33;100.00;97528.50;18431773;32;19965;-58
2023/08/05 12:46:50;;;;;;;1.27;0.95;;;;;;;20.87;100.00;97506.63;18437243;32;20437;-58
2023/08/05 12:56:53;;;;;;;1.65;1.12;;;;;;;20.86;100.00;97494.03;18437057;32;20069;-58
2023/08/05 13:06:57;;;;;;;2.55;1.40;;;;;;;21.22;100.00;97506.16;18436403;32;20150;-58
2023/08/05 13:17:00;;;;;;;1.85;1.35;;;;;;;22.34;94.82;97488.28;18422093;32;20075;-58
2023/08/05 13:27:04;;;;;;;1.85;1.55;;;;;;;23.67;97.41;97474.16;18435213;32;20081;-57
2023/08/05 13:37:07;;;;;;;1.70;1.40;;;;;;;24.00;87.61;97452.75;18420242;32;20073;-58
2023/08/05 13:47:10;;;;;;;2.05;1.10;;;;;;;25.07;94.88;97450.31;18433888;32;20045;-58
2023/08/05 13:57:13;;;;;;;1.75;1.40;;;;;;;24.48;72.28;97455.22;18433992;32;20081;-58
2023/08/05 14:07:16;;;;;;;1.30;1.20;;;;;;;25.04;84.55;97451.84;18432824;32;20072;-58
2023/08/05 14:17:19;;;;;;;1.67;1.27;;;;;;;24.76;83.71;97434.78;18418693;32;20066;-58
2023/08/05 14:27:22;;;;;;;1.40;1.20;;;;;;;24.92;85.51;97420.84;18411662;32;20050;-58
2023/08/05 14:37:25;;;;;;;1.48;1.12;;;;;;;25.19;68.47;97405.84;18417035;32;20057;-58
2023/08/05 14:47:28;;;;;;;1.42;1.17;;;;;;;26.01;56.73;97368.47;18430673;32;20054;-58
2023/08/05 14:57:31;;;;;;;2.12;1.20;;;;;;;26.20;65.33;97376.63;18431003;32;20057;-58
2023/08/05 15:07:36;;;;;;;4.30;1.40;;;;;;;25.18;73.52;97362.72;18430608;32;20073;-58
2023/08/05 15:17:44;;;;;;;1.55;1.20;;;;;;;25.04;68.38;97343.97;18430259;32;20105;-58
2023/08/05 15:27:47;;;;;;;2.87;1.30;;;;;;;24.55;68.71;97333.75;18429626;32;20057;-58
2023/08/05 15:37:51;;;;;;;1.95;1.27;;;;;;;24.18;76.76;97326.81;18429590;32;20437;-57
2023/08/05 15:47:55;;;;;;;1.58;1.15;;;;;;;23.74;67.73;97312.63;18419602;32;20058;-58
2023/08/05 15:58:01;;;;;;;2.05;1.45;;;;;;;23.31;84.15;97315.31;18415069;32;20373;-58
2023/08/05 16:08:04;;;;;;;1.33;1.02;;;;;;;23.53;88.62;97302.75;18440429;32;20053;-58
2023/08/05 16:18:07;;;;;;;1.40;1.10;;;;;;;23.23;76.17;97295.09;18419229;32;20084;-58
2023/08/05 16:28:12;;;;;;;2.20;1.10;;;;;;;22.93;89.94;97281.81;18439299;32;20087;-57
2023/08/05 16:38:15;;;;;;;2.03;1.48;;;;;;;22.71;72.66;97263.22;18424587;32;20405;-57
2023/08/05 16:48:18;;;;;;;1.83;1.20;;;;;;;22.09;92.05;97260.97;18410458;32;20085;-57
2023/08/05 16:58:22;;;;;;;1.67;1.15;;;;;;;21.94;99.97;97266.16;18436782;32;20084;-58
2023/08/05 17:08:25;;;;;;;1.52;1.10;;;;;;;21.80;100.00;97249.25;18436428;32;20366;-57
2023/08/05 17:18:28;;;;;;;2.83;1.60;;;;;;;21.57;100.00;97251.81;18435810;32;20077;-57
2023/08/05 17:28:31;;;;;;;;;;;;;;;21.38;100.00;97246.94;18421447;32;20057;-58
2023/08/05 17:38:34;;;;;;;1.83;1.50;;;;;;;21.01;100.00;97241.63;18434792;32;19957;-57
2023/08/05 17:48:37;;;;;;;4.03;2.70;;;;;;;20.66;100.00;97226.47;18433722;32;20093;-57
2023/08/05 17:58:40;;;;;;;4.25;2.65;;;;;;;20.43;100.00;97228.91;18433322;32;20076;-57
2023/08/05 18:08:45;;;;;;;2.87;1.00;;;;;;;20.29;100.00;97230.06;18425895;32;20054;-57
2023/08/05 18:18:48;;;;;;;1.10;0.80;;;;;;;20.03;100.00;97244.16;18418073;32;20045;-57
2023/08/05 18:28:51;;;;;;;1.20;0.80;;;;;;;19.83;100.00;97229.41;18418261;32;20054;-57
2023/08/05 18:38:54;;;;;;;1.62;1.00;;;;;;;19.64;100.00;97255.41;18431523;32;20064;-57
2023/08/05 18:48:57;;;;;;;1.35;0.82;;;;;;;19.37;100.00;97254.06;18417148;32;20144;-57
2023/08/05 18:59:00;;;;;;;1.00;0.90;;;;;;;19.09;100.00;97251.13;18430841;32;20095;-57
2023/08/05 19:09:03;;;;;;;1.70;0.93;;;;;;;18.84;100.00;97248.22;18430502;32;20053;-57
2023/08/05 19:19:06;;;;;;;1.17;1.00;;;;;;;18.61;100.00;97240.38;18431644;32;20061;-57
2023/08/05 19:29:09;;;;;;;0.93;0.80;;;;;;;18.40;100.00;97248.53;18442632;32;20053;-57
2023/08/05 19:39:13;;;;;;;1.85;0.80;;;;;;;18.26;100.00;97267.16;18442108;32;20402;-57
2023/08/05 19:49:16;;;;;;;2.17;1.30;;;;;;;18.11;100.00;97260.31;18441312;32;20097;-57
2023/08/05 19:59:19;;;;;;;1.73;1.40;;;;;;;17.97;100.00;97262.47;18420067;32;20065;-57
2023/08/05 20:09:22;;;;;;;1.77;1.10;;;;;;;17.85;100.00;97265.88;18426659;32;20061;-57
2023/08/05 20:19:25;;;;;;;1.37;1.20;;;;;;;17.72;100.00;97254.81;18439601;32;20171;-57
2023/08/05 20:29:28;;;;;;;3.43;1.13;;;;;;;17.56;100.00;97259.19;18439118;32;20101;-57
2023/08/05 20:39:30;;;;;;;3.97;1.10;;;;;;;17.38;100.00;97258.44;18423946;32;20076;-57
2023/08/05 20:49:33;;;;;;;1.67;1.20;;;;;;;17.21;100.00;97260.09;18423597;32;20064;-57
2023/08/05 20:59:37;;;;;;;3.17;1.30;;;;;;;17.08;100.00;97252.84;18423332;32;20052;-57
2023/08/05 21:09:40;;;;;;;3.85;1.52;;;;;;;16.91;100.00;97256.38;18422493;32;20068;-57
2023/08/05 21:19:43;;;;;;;1.57;1.17;;;;;;;16.77;100.00;97253.78;18436076;32;20069;-57
2023/08/05 21:29:46;;;;;;;2.42;1.52;;;;;;;16.63;100.00;97251.22;18435524;32;20073;-57
2023/08/05 21:39:51;;;;;;;1.75;1.20;;;;;;;16.46;100.00;97249.28;18434741;32;20465;-57
2023/08/05 21:49:55;;;;;;;2.37;1.12;;;;;;;16.32;100.00;97262.25;18433207;32;20095;-57
2023/08/05 21:59:58;;;;;;;4.63;1.63;;;;;;;16.26;100.00;97250.69;18419671;32;20069;-57
2023/08/05 22:10:01;;;;;;;2.40;1.02;;;;;;;16.14;100.00;97248.56;18433149;32;20057;-57
2023/08/05 22:20:04;;;;;;;2.37;1.10;;;;;;;15.97;100.00;97262.16;18405634;32;20058;-57
2023/08/05 22:30:07;;;;;;;1.17;0.97;;;;;;;15.89;100.00;97241.91;18432279;32;20062;-57
2023/08/05 22:40:11;;;;;;;1.42;0.73;;;;;;;15.82;100.00;97231.47;18431453;32;20389;-57
2023/08/05 22:50:15;;;;;;;3.23;0.93;;;;;;;15.70;100.00;97226.56;18417064;32;20053;-58
2023/08/05 23:00:18;;;;;;;;;;;;;;;15.43;100.00;97211.22;18441210;32;20139;-57
2023/08/05 23:10:20;;;;;;;2.40;0.80;;;;;;;15.21;100.00;97220.22;18444229;32;19949;-57
2023/08/05 23:20:24;;;;;;;2.00;1.23;;;;;;;15.11;100.00;97218.56;18443289;32;20407;-57
2023/08/05 23:30:27;;;;;;;1.53;0.90;;;;;;;15.16;100.00;97223.09;18429102;32;20065;-58
2023/08/05 23:40:30;;;;;;;2.08;1.20;;;;;;;15.18;100.00;97201.78;18435608;32;20069;-57
2023/08/05 23:50:33;;;;;;;1.12;0.80;;;;;;;15.21;100.00;97190.25;18441095;32;20054;-57
